Search for airport 
image banner adimage banner adimage banner ad
image banner ad

PN82 - West Coplay

Located in Whitehall, United States

ICAO - PN82, IATA -

Data provided by Airmate  

General information

Coordinates: N40°40'27" W75°30'18"
Elevation is 375 feet MSL.
 
View others Airports in Pennsylvania

Operational data

Special qualification required
Current time UTC:
Current local time:
Weather at : KABE - Lehigh Valley Intl ( 6 km )
METAR: KABE 071351Z 09007KT 10SM FEW110 14/01 A2991 RMK AO2 SLP130 T01390011
TAF: KABE 071120Z 0712/0812 VRB03KT P6SM SCT090 BKN200 FM071600 12005KT P6SM SCT040 OVC060 FM072000 VRB04KT P6SM VCSH BKN060 FM072300 12004KT 6SM -SHRA BR SCT015 OVC025
View NOTAMs / SUP AIP / TFR affecting this airport [VIEW]
Communications frequencies: [VIEW]

Runways:

Airport contact information

Address: Whitehall United States

Satellite view of PN82